Time;durP1;ratioP1;P1;durP2;ratioP2;P2;SDS_P1;SDS_P2;PMS_P1;PMS_P2;Temp;Humidity;BMP_temperature;BMP_pressure;BME280_temperature;BME280_humidity;BME280_pressure;Samples;Min_cycle;Max_cycle;Signal;HPM_P1;HPM_P2
2021/12/16 00:01:50;;;;;;;35.38;18.95;;;;;;;0.82;100.00;142473.95;1835048;77;20324;-55
2021/12/16 00:07:37;;;;;;;31.80;17.27;;;;;;;0.81;100.00;142471.44;1834986;77;22176;-55
2021/12/16 00:10:24;;;;;;;32.93;17.73;;;;;;;0.80;100.00;142470.19;1834962;77;22562;-55
2021/12/16 00:19:51;;;;;;;37.03;18.32;;;;;;;0.89;100.00;142491.38;1834995;77;22153;-55
2021/12/16 00:31:33;;;;;;;35.48;18.40;;;;;;;1.08;100.00;142537.38;1834947;77;22185;-55
2021/12/16 00:34:23;;;;;;;33.48;17.52;;;;;;;1.06;100.00;142533.63;1834181;77;22226;-57
2021/12/16 00:37:14;;;;;;;35.48;18.05;;;;;;;1.04;100.00;142527.41;1834909;77;22120;-57
2021/12/16 00:40:12;;;;;;;33.00;17.42;;;;;;;0.93;100.00;142500.06;1834997;77;22587;-57
2021/12/16 00:43:18;;;;;;;28.65;15.18;;;;;;;0.82;100.00;142475.19;1834962;77;22160;-56
2021/12/16 00:55:09;;;;;;;36.25;18.37;;;;;;;1.16;100.00;142556.05;1853523;77;22131;-55
2021/12/16 00:57:56;;;;;;;28.38;16.50;;;;;;;1.25;100.00;142578.47;1853536;77;22164;-57
2021/12/16 01:03:43;;;;;;;35.25;18.12;;;;;;;1.45;100.00;142626.95;1853513;77;22159;-57
2021/12/16 01:06:47;;;;;;;31.25;17.67;;;;;;;1.49;100.00;142636.92;1834905;77;22562;-54
2021/12/16 01:33:44;;;;;;;36.23;18.85;;;;;;;1.27;100.00;142583.41;1843470;78;22606;-56
2021/12/16 01:36:35;;;;;;;35.73;18.95;;;;;;;1.11;100.00;142544.84;1853521;77;22144;-56
2021/12/16 02:00:06;;;;;;;42.85;21.20;;;;;;;0.63;100.00;142429.14;1853173;77;22175;-55
2021/12/16 02:03:06;;;;;;;40.50;20.57;;;;;;;0.71;100.00;142446.56;1853723;77;22210;-54
2021/12/16 02:08:31;;;;;;;37.28;20.65;;;;;;;0.86;100.00;142483.88;1835031;77;22542;-55
2021/12/16 02:11:49;;;;;;;46.37;22.35;;;;;;;0.93;100.00;142501.30;1834788;77;22570;-54
2021/12/16 02:32:03;;;;;;;43.23;21.70;;;;;;;1.20;100.00;142566.02;1835017;77;22133;-56
2021/12/16 02:34:58;;;;;;;43.30;21.97;;;;;;;1.29;100.00;142588.39;1835024;77;22153;-56
2021/12/16 02:37:44;;;;;;;40.88;20.80;;;;;;;1.36;100.00;142605.81;1834954;77;22136;-55
2021/12/16 02:40:35;;;;;;;43.42;21.57;;;;;;;1.40;100.00;142615.80;1835018;77;20206;-55
2021/12/16 02:49:07;;;;;;;45.05;21.65;;;;;;;1.59;100.00;142660.58;1834870;77;22189;-55
2021/12/16 02:51:44;;;;;;;40.65;21.20;;;;;;;1.66;100.00;142678.03;1835051;77;22181;-55
2021/12/16 02:54:27;;;;;;;46.90;21.93;;;;;;;1.68;100.00;142684.25;1853542;77;22237;-56
2021/12/16 02:57:04;;;;;;;46.15;22.00;;;;;;;1.66;100.00;142678.03;1834960;77;22132;-55
2021/12/16 03:00:00;;;;;;;48.05;22.22;;;;;;;1.66;100.00;142679.25;1853532;77;22163;-55
2021/12/16 03:02:55;;;;;;;47.53;23.75;;;;;;;1.70;100.00;142687.95;1835038;77;22157;-55
2021/12/16 03:05:30;;;;;;;50.60;21.93;;;;;;;1.72;100.00;142692.94;1835008;77;22124;-55
2021/12/16 03:08:06;;;;;;;44.70;23.73;;;;;;;1.67;100.00;142680.48;1837818;77;27998;-56
2021/12/16 03:19:57;;;;;;;48.28;21.57;;;;;;;1.72;100.00;142692.94;1834866;77;22124;-56
2021/12/16 03:23:07;;;;;;;47.60;22.35;;;;;;;1.65;100.00;142676.73;1853558;77;22143;-55
2021/12/16 03:26:19;;;;;;;44.88;20.17;;;;;;;1.53;100.00;142646.91;1843391;77;22124;-55
2021/12/16 03:31:42;;;;;;;42.80;21.77;;;;;;;1.52;100.00;142645.63;1835114;77;22132;-57
2021/12/16 03:37:22;;;;;;;45.85;21.33;;;;;;;1.58;100.00;142658.06;1853614;77;22159;-58
2021/12/16 03:40:14;;;;;;;42.03;21.10;;;;;;;1.54;100.00;142648.14;1835215;77;22523;-58
2021/12/16 03:43:00;;;;;;;43.65;21.80;;;;;;;1.48;100.00;142634.47;1853528;77;22546;-56
2021/12/16 03:49:03;;;;;;;46.88;22.17;;;;;;;1.49;100.00;142638.16;1834942;77;22187;-55
2021/12/16 03:52:17;;;;;;;43.45;24.43;;;;;;;1.57;100.00;142655.59;1828298;77;28426;-55
2021/12/16 03:54:56;;;;;;;43.10;21.55;;;;;;;1.67;100.00;142680.48;1835013;77;22132;-57
2021/12/16 03:57:37;;;;;;;48.35;23.40;;;;;;;1.68;100.00;142684.25;1853535;77;22148;-58
2021/12/16 04:00:40;;;;;;;45.40;25.02;;;;;;;1.70;100.00;142687.95;1819409;77;28042;-57
2021/12/16 04:03:36;;;;;;;42.98;22.80;;;;;;;1.85;100.00;142724.06;1853515;77;22226;-55
2021/12/16 04:06:35;;;;;;;44.38;22.02;;;;;;;1.88;100.00;142731.52;1853533;77;20209;-56
2021/12/16 04:09:13;;;;;;;45.52;22.60;;;;;;;1.90;100.00;142736.50;1835057;77;22163;-55
2021/12/16 04:12:13;;;;;;;46.45;21.57;;;;;;;1.88;100.00;142731.52;1834908;77;22145;-56
2021/12/16 04:14:55;;;;;;;47.45;23.67;;;;;;;1.89;100.00;142735.28;1835016;77;22136;-57
2021/12/16 04:17:32;;;;;;;42.20;20.92;;;;;;;1.92;100.00;142742.73;1835096;77;22120;-57
2021/12/16 04:20:27;;;;;;;43.52;20.97;;;;;;;1.93;100.00;142745.25;1834933;77;22161;-57
2021/12/16 04:23:06;;;;;;;46.92;22.37;;;;;;;1.98;100.00;142755.19;1834930;77;22591;-57
2021/12/16 04:26:01;;;;;;;42.88;21.12;;;;;;;2.02;100.00;142766.41;1834960;77;22168;-57
2021/12/16 04:28:57;;;;;;;42.50;21.75;;;;;;;2.03;100.00;142767.64;1834952;77;22200;-57
2021/12/16 04:31:54;;;;;;;48.00;25.05;;;;;;;2.02;100.00;142765.17;1819345;77;28013;-57
2021/12/16 04:34:29;;;;;;;52.30;25.82;;;;;;;2.07;100.00;142778.86;1835013;77;22133;-59
2021/12/16 04:37:24;;;;;;;51.88;24.32;;;;;;;2.02;100.00;142765.17;1853595;77;22164;-59
2021/12/16 04:40:19;;;;;;;51.55;24.10;;;;;;;2.03;100.00;142767.64;1834965;77;22136;-55
2021/12/16 04:43:00;;;;;;;51.95;23.40;;;;;;;2.01;100.00;142762.66;1853546;77;22163;-56
2021/12/16 04:45:33;;;;;;;50.23;23.67;;;;;;;1.95;100.00;142750.19;1835194;77;22136;-56
2021/12/16 04:48:08;;;;;;;55.00;24.77;;;;;;;1.90;100.00;142736.50;1835004;77;22558;-55
2021/12/16 04:51:04;;;;;;;48.60;24.27;;;;;;;1.92;100.00;142742.73;1834968;77;22152;-56
2021/12/16 04:53:40;;;;;;;57.10;26.68;;;;;;;1.89;100.00;142735.28;1853554;77;22132;-56
2021/12/16 04:56:38;;;;;;;56.02;24.77;;;;;;;1.89;100.00;142734.03;1853607;77;22152;-55
2021/12/16 04:59:16;;;;;;;53.58;26.30;;;;;;;1.86;100.00;142727.81;1835113;77;22539;-55
2021/12/16 05:02:18;;;;;;;51.63;25.32;;;;;;;1.83;100.00;142719.06;1834800;77;22160;-55
2021/12/16 05:04:53;;;;;;;56.00;24.90;;;;;;;1.72;100.00;142692.94;1853415;77;22159;-56
2021/12/16 05:07:29;;;;;;;57.88;26.60;;;;;;;1.66;100.00;142678.03;1853464;77;22127;-56
2021/12/16 05:10:13;;;;;;;58.13;26.85;;;;;;;1.60;100.00;142664.30;1834158;77;22124;-56
2021/12/16 05:13:09;;;;;;;64.20;26.48;;;;;;;1.59;100.00;142660.58;1853491;77;22128;-55
2021/12/16 05:15:45;;;;;;;56.25;26.65;;;;;;;1.55;100.00;142650.61;1834968;77;22128;-57
2021/12/16 05:18:43;;;;;;;58.13;25.27;;;;;;;1.52;100.00;142645.63;1834976;77;22136;-54
2021/12/16 05:21:52;;;;;;;60.28;27.17;;;;;;;1.55;100.00;142650.61;1835059;77;22120;-54
2021/12/16 05:24:42;;;;;;;55.40;26.12;;;;;;;1.59;100.00;142661.81;1853521;77;22135;-55
2021/12/16 05:27:37;;;;;;;54.03;27.30;;;;;;;1.61;100.00;142665.58;1838490;77;22254;-57
2021/12/16 05:30:13;;;;;;;53.60;25.75;;;;;;;1.59;100.00;142660.58;1834971;77;22129;-55
2021/12/16 05:32:48;;;;;;;53.60;24.87;;;;;;;1.57;100.00;142655.59;1834996;77;22132;-54
2021/12/16 05:35:43;;;;;;;54.83;24.47;;;;;;;1.59;100.00;142660.58;1843405;77;22562;-54
2021/12/16 05:38:19;;;;;;;53.60;27.73;;;;;;;1.62;100.00;142669.28;1819424;77;27983;-54
2021/12/16 05:41:18;;;;;;;55.17;26.52;;;;;;;1.73;100.00;142696.69;1853476;77;22606;-54
2021/12/16 05:43:54;;;;;;;56.70;24.37;;;;;;;1.74;100.00;142697.92;1835064;77;22574;-56
2021/12/16 05:46:30;;;;;;;50.08;23.80;;;;;;;1.75;100.00;142700.41;1834758;77;22133;-54
2021/12/16 05:49:10;;;;;;;47.33;23.30;;;;;;;1.76;100.00;142701.69;1834978;77;22603;-56
2021/12/16 05:51:49;;;;;;;52.25;24.67;;;;;;;1.79;100.00;142710.38;1835029;77;22124;-54
2021/12/16 05:54:43;;;;;;;46.83;21.65;;;;;;;1.82;100.00;142716.59;1848157;78;22163;-54
2021/12/16 05:57:59;;;;;;;44.73;20.17;;;;;;;1.88;100.00;142731.52;1845977;77;22233;-54
2021/12/16 06:00:39;;;;;;;41.40;20.23;;;;;;;1.87;100.00;142730.28;1834881;77;22592;-55
2021/12/16 06:03:16;;;;;;;43.08;21.35;;;;;;;1.88;100.00;142731.52;1853627;77;22131;-55
2021/12/16 06:05:58;;;;;;;41.08;21.48;;;;;;;1.88;100.00;142732.81;1834098;77;22586;-55
2021/12/16 06:08:54;;;;;;;58.05;24.10;;;;;;;1.93;100.00;142745.25;1834948;77;22125;-55
2021/12/16 06:11:32;;;;;;;44.95;23.02;;;;;;;1.94;100.00;142747.72;1853534;77;22546;-56
2021/12/16 06:29:14;;;;;;;55.20;29.18;;;;;;;2.07;100.00;142778.86;1819232;77;28002;-55
2021/12/16 06:31:50;;;;;;;50.70;26.23;;;;;;;2.14;100.00;142796.30;1834836;77;22125;-55
2021/12/16 06:34:31;;;;;;;51.23;24.67;;;;;;;2.14;100.00;142796.30;1834197;77;22148;-55
2021/12/16 06:37:26;;;;;;;58.55;26.60;;;;;;;2.20;100.00;142808.75;1834912;77;22547;-54
2021/12/16 06:40:03;;;;;;;49.93;24.95;;;;;;;2.28;100.00;142829.91;1835116;77;22141;-55
2021/12/16 06:43:01;;;;;;;50.12;25.97;;;;;;;2.25;100.00;142822.44;1853583;77;22617;-55
2021/12/16 06:45:38;;;;;;;50.58;25.05;;;;;;;2.22;100.00;142813.73;1825508;77;22581;-54
2021/12/16 06:48:18;;;;;;;53.73;26.65;;;;;;;2.23;100.00;142817.45;1835029;77;22125;-57
2021/12/16 06:56:26;;;;;;;42.27;22.73;;;;;;;2.27;100.00;142826.19;1853520;77;22128;-56
2021/12/16 06:59:23;;;;;;;45.05;24.10;;;;;;;2.22;99.79;142813.73;1853445;77;22163;-57
2021/12/16 07:02:30;;;;;;;49.05;22.20;;;;;;;2.16;99.96;142801.28;1853506;77;22558;-55
2021/12/16 07:05:13;;;;;;;51.85;24.20;;;;;;;2.17;100.00;142802.53;1834928;77;22550;-56
2021/12/16 07:08:14;;;;;;;43.85;22.95;;;;;;;2.14;99.95;142795.06;1821046;77;22265;-56
2021/12/16 07:11:15;;;;;;;45.17;23.15;;;;;;;2.16;100.00;142801.28;1818216;77;22200;-56
2021/12/16 07:14:00;;;;;;;46.18;23.25;;;;;;;2.20;100.00;142808.75;1824404;77;22214;-55
2021/12/16 07:16:34;;;;;;;45.92;23.80;;;;;;;2.22;100.00;142813.73;1834948;77;22132;-54
2021/12/16 07:19:27;;;;;;;44.48;21.45;;;;;;;2.19;99.86;142807.52;1834840;77;22625;-56
2021/12/16 07:22:06;;;;;;;49.38;23.80;;;;;;;2.14;99.94;142795.06;1853794;77;22116;-55
2021/12/16 07:25:02;;;;;;;48.70;23.27;;;;;;;2.15;100.00;142797.53;1834997;77;22132;-55
2021/12/16 07:27:37;;;;;;;48.23;23.07;;;;;;;2.14;100.00;142795.06;1851210;77;22586;-55
2021/12/16 07:30:17;;;;;;;45.55;22.98;;;;;;;2.12;100.00;142790.06;1820433;77;22187;-55
2021/12/16 07:32:57;;;;;;;48.80;25.23;;;;;;;2.13;100.00;142793.78;1817002;77;22203;-56
2021/12/16 07:35:54;;;;;;;50.65;23.87;;;;;;;2.13;100.00;142792.53;1834709;77;22212;-56
2021/12/16 07:38:55;;;;;;;42.43;22.17;;;;;;;2.12;100.00;142790.06;1853484;77;22143;-54
2021/12/16 07:41:39;;;;;;;49.65;23.38;;;;;;;2.09;100.00;142782.61;1830431;77;22635;-56
2021/12/16 07:44:16;;;;;;;47.40;22.73;;;;;;;2.09;100.00;142782.61;1815834;77;22144;-54
2021/12/16 07:46:56;;;;;;;46.42;22.50;;;;;;;2.08;100.00;142780.09;1817045;77;20118;-55
2021/12/16 07:49:39;;;;;;;44.03;21.50;;;;;;;2.04;100.00;142770.16;1841408;77;22199;-54
2021/12/16 07:52:20;;;;;;;45.05;22.07;;;;;;;1.99;100.00;142757.70;1816995;77;22589;-54
2021/12/16 07:54:56;;;;;;;42.70;22.10;;;;;;;1.99;100.00;142757.70;1831641;77;22211;-54
2021/12/16 07:57:31;;;;;;;48.58;24.15;;;;;;;1.99;100.00;142758.94;1832732;77;22140;-54
2021/12/16 08:00:21;;;;;;;45.48;22.17;;;;;;;2.01;100.00;142762.66;1825704;77;22215;-56
2021/12/16 08:03:12;;;;;;;45.80;23.30;;;;;;;2.02;100.00;142765.17;1818739;77;22188;-55
2021/12/16 08:06:12;;;;;;;45.00;21.77;;;;;;;2.01;100.00;142763.94;1820084;77;22176;-55
2021/12/16 08:09:09;;;;;;;45.58;23.32;;;;;;;2.00;100.00;142760.19;1832712;77;22211;-56
2021/12/16 08:12:05;;;;;;;41.28;21.50;;;;;;;1.92;100.00;142742.73;1809852;77;22188;-54
2021/12/16 08:15:00;;;;;;;45.35;22.35;;;;;;;1.98;100.00;142755.19;1834939;77;20460;-54
2021/12/16 08:17:36;;;;;;;48.05;23.67;;;;;;;2.02;100.00;142765.17;1834925;77;22559;-55
2021/12/16 08:20:31;;;;;;;46.75;23.27;;;;;;;2.06;100.00;142776.38;1834924;77;22152;-54
2021/12/16 08:23:25;;;;;;;42.67;22.32;;;;;;;2.09;100.00;142782.61;1811185;77;22171;-55
2021/12/16 08:26:02;;;;;;;51.30;23.87;;;;;;;2.13;100.00;142792.53;1819306;77;22164;-55
2021/12/16 08:28:44;;;;;;;42.98;21.50;;;;;;;2.12;100.00;142791.31;1817097;77;22172;-54
2021/12/16 08:31:21;;;;;;;51.98;24.18;;;;;;;2.14;100.00;142796.30;1818018;77;22168;-55
2021/12/16 08:33:57;;;;;;;45.88;26.30;;;;;;;2.18;100.00;142806.23;1806311;77;28017;-55
2021/12/16 08:36:35;;;;;;;41.15;21.87;;;;;;;2.28;100.00;142828.67;1834203;77;22202;-55
2021/12/16 08:39:10;;;;;;;43.25;25.40;;;;;;;2.28;100.00;142828.67;1796858;77;28157;-55
2021/12/16 08:42:09;;;;;;;45.28;23.07;;;;;;;2.38;100.00;142854.81;1834918;77;22152;-54
2021/12/16 08:45:09;;;;;;;45.35;23.07;;;;;;;2.38;100.00;142854.81;1837811;77;22199;-55
2021/12/16 08:47:45;;;;;;;45.12;23.18;;;;;;;2.37;100.00;142852.34;1831494;77;22136;-57
2021/12/16 08:50:23;;;;;;;46.73;26.77;;;;;;;2.40;100.00;142858.56;1804544;77;27992;-56
2021/12/16 08:52:59;;;;;;;45.43;22.90;;;;;;;2.46;100.00;142872.25;1820110;77;22148;-54
2021/12/16 08:55:35;;;;;;;45.38;23.35;;;;;;;2.42;100.00;142862.28;1834853;77;22157;-55
2021/12/16 08:58:10;;;;;;;49.08;23.92;;;;;;;2.44;100.00;142867.27;1831418;77;22611;-55
2021/12/16 09:00:56;;;;;;;44.65;24.05;;;;;;;2.44;100.00;142868.50;1853165;77;22613;-55
2021/12/16 09:03:46;;;;;;;48.80;25.35;;;;;;;2.46;100.00;142872.25;1834842;77;22165;-54
2021/12/16 09:06:22;;;;;;;50.92;26.20;;;;;;;2.47;100.00;142876.02;1853311;77;22151;-56
2021/12/16 09:08:57;;;;;;;49.33;27.20;;;;;;;2.42;100.00;142862.28;1837429;77;28027;-55
2021/12/16 09:11:38;;;;;;;47.53;25.80;;;;;;;2.43;100.00;142864.80;1822834;77;22172;-54
2021/12/16 09:14:08;;;;;;;47.45;25.72;;;;;;;2.37;100.00;142851.11;1816506;77;22152;-56
2021/12/16 09:16:43;;;;;;;44.20;23.32;;;;;;;2.34;100.00;142844.87;1834645;77;22566;-55
2021/12/16 09:19:18;;;;;;;50.17;23.50;;;;;;;2.41;100.00;142859.81;1834515;77;22607;-55
2021/12/16 09:21:59;;;;;;;47.05;25.43;;;;;;;2.47;100.00;142874.73;1833787;77;22614;-55
2021/12/16 09:24:35;;;;;;;46.45;23.92;;;;;;;2.48;100.00;142878.48;1834623;77;22153;-56
2021/12/16 09:27:28;;;;;;;46.10;25.35;;;;;;;2.48;100.00;142878.48;1834666;77;22208;-56
2021/12/16 09:30:08;;;;;;;46.85;24.92;;;;;;;2.45;100.00;142869.78;1834642;77;22164;-56
2021/12/16 09:32:45;;;;;;;47.75;24.30;;;;;;;2.49;100.00;142879.72;1834669;77;22642;-55
2021/12/16 09:35:21;;;;;;;51.45;25.55;;;;;;;2.54;100.00;142893.42;1834624;77;22638;-55
2021/12/16 09:38:16;;;;;;;45.52;25.10;;;;;;;2.58;100.00;142902.17;1834611;77;22214;-54
2021/12/16 09:40:55;;;;;;;43.75;25.68;;;;;;;2.59;100.00;142904.64;1834605;77;22148;-55
2021/12/16 09:43:52;;;;;;;50.90;24.92;;;;;;;2.60;100.00;142907.16;1834613;77;22156;-54
2021/12/16 09:46:50;;;;;;;45.67;25.15;;;;;;;2.56;100.00;142897.17;1834654;77;22160;-55
2021/12/16 09:49:44;;;;;;;44.15;23.40;;;;;;;2.55;100.00;142895.94;1834440;77;22157;-55
2021/12/16 09:52:39;;;;;;;47.78;23.80;;;;;;;2.56;100.00;142897.17;1843169;77;22223;-55
2021/12/16 09:55:23;;;;;;;45.33;24.55;;;;;;;2.56;100.00;142898.41;1853102;77;22210;-55
2021/12/16 09:58:02;;;;;;;53.30;25.82;;;;;;;2.54;100.00;142893.42;1800125;79;22200;-55
2021/12/16 10:00:35;;;;;;;44.42;26.87;;;;;;;2.56;100.00;142897.17;1819070;77;28036;-56
2021/12/16 10:03:10;;;;;;;49.42;26.17;;;;;;;2.65;100.00;142919.63;1834572;77;22132;-56
2021/12/16 10:05:46;;;;;;;45.88;23.70;;;;;;;2.69;100.00;142929.56;1834657;77;22559;-55
2021/12/16 10:08:27;;;;;;;47.25;26.02;;;;;;;2.79;100.00;142953.23;1833820;77;22201;-56
2021/12/16 10:11:11;;;;;;;46.95;24.32;;;;;;;2.84;100.00;142965.70;1852992;77;22227;-55
2021/12/16 10:19:31;;;;;;;44.55;24.18;;;;;;;3.04;100.00;143014.31;1833669;77;22167;-55
2021/12/16 10:22:29;;;;;;;46.42;24.57;;;;;;;3.03;100.00;143011.83;1834687;77;22590;-55
2021/12/16 10:25:34;;;;;;;49.93;25.08;;;;;;;3.00;100.00;143005.59;1840531;77;22276;-55
2021/12/16 10:28:25;;;;;;;43.25;24.25;;;;;;;3.03;100.00;143011.83;1834231;77;22250;-55
2021/12/16 10:31:36;;;;;;;40.30;21.50;;;;;;;3.11;100.00;143031.77;1852446;77;22370;-55
2021/12/16 10:34:27;;;;;;;45.38;24.07;;;;;;;3.21;100.00;143056.69;1834360;77;22164;-56
2021/12/16 10:37:33;;;;;;;41.73;22.07;;;;;;;3.33;100.00;143084.09;1853010;77;22159;-56
2021/12/16 10:40:40;;;;;;;42.45;22.58;;;;;;;3.42;100.00;143106.56;1834618;77;22164;-55
2021/12/16 10:43:37;;;;;;;38.30;22.40;;;;;;;3.48;100.00;143122.73;1853128;77;22602;-55
2021/12/16 10:46:18;;;;;;;40.55;22.60;;;;;;;3.55;100.00;143138.97;1822224;77;22223;-56
2021/12/16 10:49:01;;;;;;;46.23;24.07;;;;;;;3.55;100.00;143138.97;1815568;77;22279;-55
2021/12/16 10:52:02;;;;;;;41.13;23.30;;;;;;;3.59;100.00;143147.72;1818662;77;22192;-55
2021/12/16 10:55:00;;;;;;;43.00;24.12;;;;;;;3.62;100.00;143155.19;1832836;77;22252;-56
2021/12/16 10:57:38;;;;;;;42.53;23.77;;;;;;;3.68;100.00;143170.13;1818086;77;22176;-56
2021/12/16 11:00:16;;;;;;;42.05;25.57;;;;;;;3.68;100.00;143171.37;1802859;77;28123;-54
2021/12/16 11:02:50;;;;;;;40.95;24.80;;;;;;;3.75;100.00;143187.59;1820119;77;22211;-55
2021/12/16 11:05:31;;;;;;;44.70;25.37;;;;;;;3.79;100.00;143197.59;1818141;77;22683;-55
2021/12/16 11:08:11;;;;;;;41.15;23.45;;;;;;;3.81;100.00;143201.31;1819300;77;22164;-55
2021/12/16 11:11:11;;;;;;;42.27;23.35;;;;;;;3.80;100.00;143198.83;1818202;77;22579;-55
2021/12/16 11:13:44;;;;;;;39.88;24.30;;;;;;;3.81;100.00;143201.31;1828672;77;22237;-54
2021/12/16 11:16:33;;;;;;;38.15;21.77;;;;;;;3.82;100.00;143205.08;1832656;77;22164;-55
2021/12/16 11:19:53;;;;;;;42.03;23.20;;;;;;;3.80;100.00;143198.83;1834980;77;22157;-55
2021/12/16 11:22:36;;;;;;;44.95;24.07;;;;;;;3.80;100.00;143198.83;1816329;78;22179;-54
2021/12/16 11:25:29;;;;;;;41.08;23.83;;;;;;;3.84;100.00;143208.78;1853432;77;22135;-54
2021/12/16 11:28:24;;;;;;;45.50;24.72;;;;;;;3.83;100.00;143206.31;1834991;77;22133;-54
2021/12/16 11:31:04;;;;;;;45.08;25.20;;;;;;;3.89;100.00;143221.25;1825334;77;22192;-55
2021/12/16 11:34:02;;;;;;;41.45;24.27;;;;;;;3.87;100.00;143216.31;1827085;77;22251;-56
2021/12/16 11:36:44;;;;;;;48.78;26.45;;;;;;;3.87;100.00;143216.31;1812133;77;22182;-54
2021/12/16 11:39:38;;;;;;;48.92;26.05;;;;;;;3.89;100.00;143221.25;1823373;77;22149;-56
2021/12/16 11:42:34;;;;;;;51.28;27.48;;;;;;;3.93;100.00;143231.25;1834628;77;22179;-54
2021/12/16 11:45:33;;;;;;;53.25;28.07;;;;;;;3.98;100.00;143243.72;1820876;77;22305;-54
2021/12/16 11:48:11;;;;;;;46.50;27.37;;;;;;;3.99;100.00;143246.20;1821034;77;22228;-55
2021/12/16 11:50:46;;;;;;;53.50;26.23;;;;;;;3.96;100.00;143238.72;1843334;78;22160;-55
2021/12/16 11:53:21;;;;;;;51.95;27.13;;;;;;;3.94;100.00;143233.72;1834023;77;22169;-55
2021/12/16 11:55:55;;;;;;;53.60;26.65;;;;;;;3.93;100.00;143231.25;1852212;77;22231;-55
2021/12/16 11:58:36;;;;;;;52.88;26.75;;;;;;;3.94;100.00;143233.72;1832024;77;22681;-54
2021/12/16 12:01:16;;;;;;;47.48;26.80;;;;;;;3.96;100.00;143238.72;1833206;77;22219;-56
2021/12/16 12:04:11;;;;;;;53.68;27.40;;;;;;;4.00;100.00;143247.48;1853580;77;22168;-55
2021/12/16 12:07:13;;;;;;;55.25;27.10;;;;;;;3.99;100.00;143246.20;1834753;77;20123;-56
2021/12/16 12:10:08;;;;;;;44.27;23.98;;;;;;;3.99;100.00;143246.20;1835014;77;22136;-56
2021/12/16 12:12:47;;;;;;;47.38;28.73;;;;;;;3.96;100.00;143238.72;1819284;77;27962;-57
2021/12/16 12:16:09;;;;;;;55.90;27.87;;;;;;;4.04;100.00;143258.67;1834791;77;22148;-55
2021/12/16 12:19:16;;;;;;;52.88;26.87;;;;;;;4.08;100.00;143268.67;1834152;77;22566;-55
2021/12/16 12:22:03;;;;;;;48.40;26.57;;;;;;;4.06;100.00;143262.44;1834973;77;22120;-56
2021/12/16 12:24:56;;;;;;;49.95;30.30;;;;;;;4.01;100.00;143251.20;1819429;77;28038;-56
2021/12/16 12:27:52;;;;;;;50.40;27.45;;;;;;;4.07;100.00;143266.19;1853456;77;22610;-55
2021/12/16 12:30:27;;;;;;;56.90;29.18;;;;;;;4.11;100.00;143274.91;1843468;77;22175;-55
2021/12/16 12:33:03;;;;;;;49.25;27.65;;;;;;;4.14;100.00;143283.62;1834985;77;22154;-56
2021/12/16 12:35:37;;;;;;;49.35;27.27;;;;;;;4.17;100.00;143288.63;1834982;77;22153;-55
2021/12/16 12:38:13;;;;;;;51.60;29.90;;;;;;;4.18;100.00;143292.38;1837769;77;27955;-55
2021/12/16 12:40:49;;;;;;;51.02;28.32;;;;;;;4.26;100.00;143311.09;1834831;77;22124;-55
2021/12/16 12:43:24;;;;;;;48.05;27.93;;;;;;;4.24;100.00;143306.09;1834983;77;22163;-56
2021/12/16 12:46:20;;;;;;;50.90;27.62;;;;;;;4.22;100.00;143301.09;1834971;77;22124;-55
2021/12/16 12:49:17;;;;;;;49.63;27.20;;;;;;;4.19;100.00;143293.62;1853653;77;22123;-55
2021/12/16 12:52:17;;;;;;;51.40;29.12;;;;;;;4.17;100.00;143289.86;1837640;77;28487;-55
2021/12/16 12:55:14;;;;;;;52.03;27.50;;;;;;;4.24;100.00;143307.34;1853548;77;22127;-55
2021/12/16 12:58:16;;;;;;;58.63;28.62;;;;;;;4.25;100.00;143308.56;1853552;77;22192;-55
2021/12/16 13:01:10;;;;;;;55.73;29.40;;;;;;;4.28;100.00;143316.09;1834752;77;22160;-55
2021/12/16 13:04:11;;;;;;;59.63;27.90;;;;;;;4.29;100.00;143319.81;1853447;77;22581;-55
2021/12/16 13:07:03;;;;;;;58.42;29.12;;;;;;;4.27;100.00;143313.58;1829992;77;22167;-56
2021/12/16 13:09:49;;;;;;;63.33;30.57;;;;;;;4.25;100.00;143309.86;1839088;77;22206;-55
2021/12/16 13:12:50;;;;;;;57.25;29.15;;;;;;;4.23;100.00;143303.63;1814826;77;22221;-56
2021/12/16 13:25:20;;;;;;;53.20;28.05;;;;;;;4.22;100.00;143302.33;1817862;77;22161;-55
2021/12/16 13:27:41;;;;;;;55.55;28.07;;;;;;;4.22;100.00;143301.09;1826944;77;22171;-56
2021/12/16 13:30:23;;;;;;;61.80;30.05;;;;;;;4.25;100.00;143308.56;1824757;77;22614;-55
2021/12/16 13:33:27;;;;;;;54.42;27.32;;;;;;;4.27;100.00;143313.58;1834892;77;22555;-55
2021/12/16 13:36:49;;;;;;;61.73;29.25;;;;;;;4.23;100.00;143303.63;1831913;77;22233;-56
2021/12/16 13:39:30;;;;;;;57.00;28.77;;;;;;;4.23;100.00;143303.63;1853431;77;22582;-57
2021/12/16 13:42:15;;;;;;;60.25;30.02;;;;;;;4.26;100.00;143312.33;1828172;77;22235;-56
2021/12/16 13:45:03;;;;;;;61.28;29.65;;;;;;;4.31;100.00;143324.81;1836142;77;22163;-56
2021/12/16 14:00:13;;;;;;;59.48;28.65;;;;;;;4.42;100.00;143351.00;1817845;77;22709;-54
2021/12/16 14:05:43;;;;;;;51.08;24.50;;;;;;;4.42;100.00;143349.77;1818352;77;22231;-56
2021/12/16 14:08:43;;;;;;;48.48;26.52;;;;;;;4.41;100.00;143347.28;1822049;77;22174;-55
2021/12/16 14:14:47;;;;;;;43.13;23.60;;;;;;;4.43;100.00;143353.53;1834040;77;22192;-56
2021/12/16 14:17:47;;;;;;;41.63;23.10;;;;;;;4.43;100.00;143353.53;1851051;77;22221;-55
2021/12/16 14:23:53;;;;;;;42.38;22.77;;;;;;;4.40;100.00;143344.77;1834954;77;22161;-55
2021/12/16 14:35:45;;;;;;;32.13;17.98;;;;;;;4.35;100.00;143334.81;1884471;76;22140;-55
2021/12/16 14:38:59;;;;;;;33.83;17.92;;;;;;;4.37;100.00;143338.53;1831314;77;22160;-57
2021/12/16 14:41:49;;;;;;;28.95;16.37;;;;;;;4.39;100.00;143342.28;1819982;77;22148;-55
2021/12/16 14:50:00;;;;;;;29.55;18.05;;;;;;;4.45;100.00;143358.53;1847114;77;22212;-54
2021/12/16 14:52:56;;;;;;;30.95;16.77;;;;;;;4.47;100.00;143363.48;1853511;77;22140;-55
2021/12/16 14:56:13;;;;;;;31.62;18.02;;;;;;;4.44;100.00;143354.77;1833584;77;22168;-55
2021/12/16 14:59:11;;;;;;;32.78;18.67;;;;;;;4.47;100.00;143363.48;1839966;77;22218;-56
2021/12/16 15:02:06;;;;;;;29.37;17.02;;;;;;;4.54;100.00;143380.95;1817416;77;22269;-56
2021/12/16 15:05:00;;;;;;;33.35;18.73;;;;;;;4.62;100.00;143398.44;1834685;77;22164;-55
2021/12/16 15:07:35;;;;;;;35.20;18.25;;;;;;;4.65;100.00;143407.16;1853347;77;22160;-55
2021/12/16 15:10:14;;;;;;;32.75;17.92;;;;;;;4.68;100.00;143413.41;1853161;77;22159;-55
2021/12/16 15:13:14;;;;;;;31.15;18.12;;;;;;;4.65;100.00;143405.92;1818947;77;28012;-56
2021/12/16 15:42:51;;;;;;;24.92;14.20;;;;;;;4.30;100.00;143321.05;1834727;77;22160;-55
2021/12/16 15:45:49;;;;;;;24.98;16.12;;;;;;;4.24;100.00;143306.09;1851799;77;22235;-55
2021/12/16 15:48:28;;;;;;;31.50;17.40;;;;;;;4.14;100.00;143282.37;1851692;77;22231;-54
2021/12/16 15:51:09;;;;;;;25.20;14.80;;;;;;;4.08;100.00;143268.67;1832938;77;22207;-55
2021/12/16 15:54:23;;;;;;;31.00;16.90;;;;;;;4.06;100.00;143262.44;1837057;77;22278;-55
2021/12/16 15:57:06;;;;;;;29.70;16.17;;;;;;;4.00;100.00;143248.72;1832024;77;22686;-56
2021/12/16 16:00:18;;;;;;;27.67;16.55;;;;;;;3.99;100.00;143246.20;1852220;77;22230;-54
2021/12/16 16:03:15;;;;;;;34.08;17.90;;;;;;;4.02;100.00;143252.44;1853001;77;22215;-55
2021/12/16 16:05:58;;;;;;;28.15;17.30;;;;;;;4.07;100.00;143264.91;1834507;77;22606;-55
2021/12/16 16:08:38;;;;;;;30.90;18.00;;;;;;;4.09;100.00;143271.16;1834625;77;22220;-54
2021/12/16 16:11:35;;;;;;;30.55;17.65;;;;;;;4.13;100.00;143281.14;1834447;77;22137;-55
2021/12/16 16:14:32;;;;;;;32.78;17.52;;;;;;;4.19;100.00;143294.86;1834479;77;22234;-60
2021/12/16 16:17:14;;;;;;;26.70;16.37;;;;;;;4.25;100.00;143308.56;1834436;77;22164;-54
2021/12/16 16:19:43;;;;;;;30.15;17.80;;;;;;;4.29;100.00;143319.81;1831776;77;22168;-55
2021/12/16 16:22:19;;;;;;;26.52;17.90;;;;;;;4.34;100.00;143331.05;1819280;77;28011;-54